Skip Navigation Links
NOAA logo - Click to go to the NOAA homepage
NOAA's National Weather Service
Alaska Aviation Weather Unit
  NWS logo - Click to go to the NWS homepage
Left Navbar Graphic     19 AKDT = 03 GMT

   
NOAA is celebrating 200 years of science, service, and stewardship. Visit the NOAA 200th celebration Web site to learn more.
USA.gov is the U.S. Government's official Web portal to all Federal, state and local government Web resources and services.
Facebook
NWS on Facebook

Important Change Regarding the AAWU Web Presence

 

Over the last several months, the AAWU has been working to navigate its webpages to a nationally supported server. Security, as well as other needs, have necessitated the change.  In the process, we have made an effort to enhance the functionality of our website, as well as some of our products. As of June 20, 2017, aawu.arh.noaa.gov will be discontinued. The new AAWU web address is weather.gov/aawu. It is now live and will run in-parallel with the old site until it is discontinued. Please send any feedback or questions regarding the new webpages to nws.ar.aawu.webauthors@noaa.gov.  Thank you for your patience during this time of transition.
AAWU Home :: Display TAF Add Bookmark
SPECI PATE 242118Z AUTO 23009KT 10SM -RA SCT011 BKN023 OVC029 04/03
     A2941 RMK AO2 P0000=

SPECI PATE 242127Z AUTO 22010KT 10SM -RA SCT004 BKN016 OVC029 04/03
     A2941 RMK AO2 P0000=

SPECI PATE 242139Z AUTO 23010KT 10SM -RA BKN004 BKN016 OVC030 04/03
     A2941 RMK AO2 CIG 003V008 P0000=

METAR PATE 242156Z AUTO 23010KT 8SM -RA BKN004 OVC018 04/03 A2941
 RMK AO2 CIG 003V008 SLP965 P0000 T00390033=

METAR PATE 242256Z AUTO 24010KT 6SM BR OVC004 04/03 A2941 RMK AO2 RAE56
     SLP965 P0000 T00390028=

SPECI PATE 242344Z AUTO 22013KT 10SM OVC006 04/03 A2941 RMK AO2
 RAB2257E12 CIG 003V009 P0001=

METAR PATE 242356Z AUTO 22012KT 10SM SCT006 OVC011 05/03 A2941 RMK
 AO2 RAB2257E12 SLP965 P0001 60001 T00500033 10050 20033 57001=

METAR PATE 250056Z AUTO 18019KT 10SM OVC011 04/02 A2941 RMK AO2 SLP965
     T00390017=

SPECI PATE 250137Z AUTO 19018KT 10SM OVC009 03/01 A2942 RMK AO2 CIG
     008V013=

METAR PATE 250156Z AUTO 19021G25KT 10SM OVC011 03/00 A2942 RMK AO2 CIG
     008V014 SLP969 T00280000=

METAR PATE 250256Z AUTO 19022G28KT 10SM OVC009 02/00 A2943 RMK AO2
 PK WND 21028/0248 SLP971 T00170000 53005 FZRANO=


NOAA's National Weather Service
Alaska Aviation Weather Unit
6930 Sand Lake Road
Anchorage, AK 99502-1845
Disclaimer
Credits
Glossary
Privacy Policy
About Us
Career Opportunities
Contact AAWU Internet Services Site last modified: April, 17th 2012